Time,TemperatureF,DewpointF,PressureIn,WindDirection,WindDirectionDegrees,WindSpeedMPH,WindSpeedGustMPH,Humidity,HourlyPrecipIn,Conditions,Clouds,dailyrainin,SoftwareType,DateUTC
2013-03-15 00:00:00,50.7,46.4,30.47,WSW,238,6.0,11.0,85,0.00,,,0.00,meteohub,2013-03-15 07:00:00,
2013-03-15 00:05:00,50.9,46.9,30.47,WSW,240,8.0,11.0,86,0.00,,,0.00,meteohub,2013-03-15 07:05:00,
2013-03-15 00:11:00,51.1,46.8,30.47,WNW,283,3.0,11.0,85,0.00,,,0.00,meteohub,2013-03-15 07:11:00,
2013-03-15 00:16:00,51.1,47.1,30.47,WSW,253,7.0,13.0,86,0.00,,,0.00,meteohub,2013-03-15 07:16:00,
2013-03-15 00:21:00,51.1,47.1,30.47,West,260,5.0,13.0,86,0.00,,,0.00,meteohub,2013-03-15 07:21:00,
2013-03-15 00:26:00,51.3,47.3,30.47,SSW,207,9.0,13.0,86,0.00,,,0.00,meteohub,2013-03-15 07:26:00,
2013-03-15 00:31:00,51.3,46.9,30.47,WSW,253,6.0,13.0,85,0.00,,,0.00,meteohub,2013-03-15 07:31:00,
2013-03-15 00:36:00,51.3,46.9,30.47,WSW,241,10.0,13.0,85,0.00,,,0.00,meteohub,2013-03-15 07:36:00,
2013-03-15 00:41:00,51.3,47.3,30.47,WSW,242,8.0,12.0,86,0.00,,,0.00,meteohub,2013-03-15 07:41:00,
2013-03-15 00:47:00,51.3,47.3,30.47,WSW,244,8.0,15.0,86,0.00,,,0.00,meteohub,2013-03-15 07:47:00,
2013-03-15 00:52:00,51.3,47.3,30.47,SW,225,7.0,15.0,86,0.00,,,0.00,meteohub,2013-03-15 07:52:00,
2013-03-15 00:57:00,51.3,47.3,30.47,WSW,242,10.0,15.0,86,0.00,,,0.00,meteohub,2013-03-15 07:57:00,
2013-03-15 01:02:00,51.3,47.3,30.47,SW,233,7.0,15.0,86,0.00,,,0.00,meteohub,2013-03-15 08:02:00,
2013-03-15 01:07:00,51.3,47.3,30.48,SW,229,6.0,16.0,86,0.00,,,0.00,meteohub,2013-03-15 08:07:00,
2013-03-15 01:12:00,51.3,47.3,30.47,WSW,237,8.0,16.0,86,0.00,,,0.00,meteohub,2013-03-15 08:12:00,
2013-03-15 01:17:00,51.3,47.3,30.46,West,281,6.0,16.0,86,0.00,,,0.00,meteohub,2013-03-15 08:17:00,
2013-03-15 01:22:00,51.1,47.1,30.46,WSW,250,6.0,19.0,86,0.00,,,0.00,meteohub,2013-03-15 08:22:00,
2013-03-15 01:27:00,51.1,47.1,30.46,WSW,253,6.0,19.0,86,0.00,,,0.00,meteohub,2013-03-15 08:27:00,
2013-03-15 01:33:00,51.1,47.1,30.46,West,259,9.0,16.0,86,0.00,,,0.00,meteohub,2013-03-15 08:33:00,
2013-03-15 01:38:00,51.1,47.1,30.46,WSW,253,17.0,17.0,86,0.00,,,0.00,meteohub,2013-03-15 08:38:00,
2013-03-15 01:43:00,51.1,47.1,30.46,WSW,255,6.0,17.0,86,0.00,,,0.00,meteohub,2013-03-15 08:43:00,
2013-03-15 01:48:00,51.3,47.3,30.47,SW,218,10.0,17.0,86,0.00,,,0.00,meteohub,2013-03-15 08:48:00,
2013-03-15 01:53:00,51.3,47.3,30.47,WSW,242,4.0,17.0,86,0.00,,,0.00,meteohub,2013-03-15 08:53:00,
2013-03-15 01:58:00,51.3,47.3,30.47,West,259,9.0,19.0,86,0.00,,,0.00,meteohub,2013-03-15 08:58:00,
2013-03-15 02:04:00,51.3,47.3,30.47,SW,222,8.0,19.0,86,0.00,,,0.00,meteohub,2013-03-15 09:04:00,
2013-03-15 02:09:00,51.3,47.3,30.47,West,259,8.0,19.0,86,0.00,,,0.00,meteohub,2013-03-15 09:09:00,
2013-03-15 02:14:00,51.3,47.3,30.47,SW,236,8.0,18.0,86,0.00,,,0.00,meteohub,2013-03-15 09:14:00,
2013-03-15 02:19:00,51.3,47.3,30.47,WSW,242,9.0,18.0,86,0.00,,,0.00,meteohub,2013-03-15 09:19:00,
2013-03-15 02:24:00,51.1,47.3,30.47,WSW,255,8.0,18.0,87,0.00,,,0.00,meteohub,2013-03-15 09:24:00,
2013-03-15 02:29:00,51.1,47.3,30.48,WNW,288,6.0,18.0,87,0.00,,,0.00,meteohub,2013-03-15 09:29:00,
2013-03-15 02:35:00,51.1,47.3,30.48,WNW,302,8.0,16.0,87,0.00,,,0.00,meteohub,2013-03-15 09:35:00,
2013-03-15 02:40:00,51.3,47.5,30.48,WSW,244,5.0,14.0,87,0.00,,,0.00,meteohub,2013-03-15 09:40:00,
2013-03-15 02:45:00,51.3,47.3,30.48,WSW,240,13.0,16.0,86,0.00,,,0.00,meteohub,2013-03-15 09:45:00,
2013-03-15 02:50:00,51.3,47.3,30.48,SSW,209,3.0,15.0,86,0.00,,,0.00,meteohub,2013-03-15 09:50:00,
2013-03-15 02:56:00,51.3,47.3,30.48,WSW,252,7.0,15.0,86,0.00,,,0.00,meteohub,2013-03-15 09:56:00,
2013-03-15 03:01:00,51.3,47.3,30.48,West,260,4.0,14.0,86,0.00,,,0.00,meteohub,2013-03-15 10:01:00,
2013-03-15 03:06:00,51.1,47.3,30.48,SW,228,6.0,11.0,87,0.00,,,0.00,meteohub,2013-03-15 10:06:00,
2013-03-15 03:11:00,51.1,47.3,30.48,WSW,255,6.0,14.0,87,0.00,,,0.00,meteohub,2013-03-15 10:11:00,
2013-03-15 03:16:00,51.3,47.5,30.48,WSW,248,6.0,14.0,87,0.00,,,0.00,meteohub,2013-03-15 10:16:00,
2013-03-15 03:21:00,51.3,47.5,30.48,SW,233,9.0,14.0,87,0.00,,,0.00,meteohub,2013-03-15 10:21:00,
2013-03-15 03:26:00,51.3,47.5,30.48,West,271,8.0,14.0,87,0.00,,,0.00,meteohub,2013-03-15 10:26:00,
2013-03-15 03:31:00,51.1,47.3,30.48,WSW,250,4.0,14.0,87,0.00,,,0.00,meteohub,2013-03-15 10:31:00,
2013-03-15 03:36:00,51.1,47.3,30.47,West,271,7.0,12.0,87,0.00,,,0.00,meteohub,2013-03-15 10:36:00,
2013-03-15 03:42:00,51.1,47.3,30.47,WSW,239,9.0,15.0,87,0.00,,,0.00,meteohub,2013-03-15 10:42:00,
2013-03-15 03:47:00,51.1,47.3,30.47,WSW,248,6.0,15.0,87,0.00,,,0.00,meteohub,2013-03-15 10:47:00,
2013-03-15 03:52:00,51.1,47.3,30.47,WSW,257,4.0,15.0,87,0.00,,,0.00,meteohub,2013-03-15 10:52:00,
2013-03-15 03:57:00,51.1,47.3,30.47,West,276,3.0,14.0,87,0.00,,,0.00,meteohub,2013-03-15 10:57:00,
2013-03-15 04:02:00,51.1,47.3,30.47,WNW,291,4.0,10.0,87,0.00,,,0.00,meteohub,2013-03-15 11:02:00,
2013-03-15 04:08:00,51.1,47.3,30.47,West,279,3.0,8.0,87,0.00,,,0.00,meteohub,2013-03-15 11:08:00,
2013-03-15 04:13:00,51.1,47.3,30.47,West,272,5.0,10.0,87,0.00,,,0.00,meteohub,2013-03-15 11:13:00,
2013-03-15 04:18:00,50.9,47.5,30.47,WNW,283,3.0,10.0,88,0.00,,,0.00,meteohub,2013-03-15 11:18:00,
2013-03-15 04:23:00,50.5,47.1,30.47,WSW,245,4.0,10.0,88,0.00,,,0.00,meteohub,2013-03-15 11:23:00,
2013-03-15 04:29:00,50.4,46.9,30.47,WSW,244,3.0,8.0,88,0.00,,,0.00,meteohub,2013-03-15 11:29:00,
2013-03-15 04:34:00,50.4,46.9,30.46,WSW,253,8.0,8.0,88,0.00,,,0.00,meteohub,2013-03-15 11:34:00,
2013-03-15 04:39:00,50.4,46.9,30.46,West,277,4.0,12.0,88,0.00,,,0.00,meteohub,2013-03-15 11:39:00,
2013-03-15 04:44:00,50.5,47.1,30.47,West,268,2.0,12.0,88,0.00,,,0.00,meteohub,2013-03-15 11:44:00,
2013-03-15 04:49:00,50.4,46.9,30.47,WNW,303,7.0,12.0,88,0.00,,,0.00,meteohub,2013-03-15 11:49:00,
2013-03-15 04:54:00,50.4,46.9,30.47,West,275,4.0,12.0,88,0.00,,,0.00,meteohub,2013-03-15 11:54:00,
2013-03-15 04:59:00,50.4,46.9,30.47,West,275,3.0,12.0,88,0.00,,,0.00,meteohub,2013-03-15 11:59:00,
2013-03-15 05:04:00,50.4,46.9,30.47,SSW,213,2.0,11.0,88,0.00,,,0.00,meteohub,2013-03-15 12:04:00,
2013-03-15 05:10:00,50.2,46.8,30.47,WNW,283,3.0,10.0,88,0.00,,,0.00,meteohub,2013-03-15 12:10:00,
2013-03-15 05:15:00,50.2,46.8,30.47,NW,310,2.0,8.0,88,0.00,,,0.00,meteohub,2013-03-15 12:15:00,
2013-03-15 05:20:00,49.8,46.4,30.47,SW,232,2.0,8.0,88,0.00,,,0.00,meteohub,2013-03-15 12:20:00,
2013-03-15 05:25:00,49.8,46.4,30.48,WNW,283,2.0,7.0,88,0.00,,,0.00,meteohub,2013-03-15 12:25:00,
2013-03-15 05:30:00,49.6,46.2,30.47,WNW,294,4.0,7.0,88,0.00,,,0.00,meteohub,2013-03-15 12:30:00,
2013-03-15 05:35:00,49.6,46.2,30.48,West,281,3.0,9.0,88,0.00,,,0.00,meteohub,2013-03-15 12:35:00,
2013-03-15 05:41:00,49.6,46.2,30.48,West,267,3.0,9.0,88,0.00,,,0.00,meteohub,2013-03-15 12:41:00,
2013-03-15 05:46:00,49.8,46.4,30.48,WSW,257,7.0,11.0,88,0.00,,,0.00,meteohub,2013-03-15 12:46:00,
2013-03-15 05:51:00,50.4,46.9,30.48,WNW,300,4.0,13.0,88,0.00,,,0.00,meteohub,2013-03-15 12:51:00,
2013-03-15 05:56:00,50.4,46.9,30.48,SW,230,6.0,13.0,88,0.00,,,0.00,meteohub,2013-03-15 12:56:00,
2013-03-15 06:01:00,50.4,46.9,30.48,WNW,299,4.0,13.0,88,0.00,,,0.00,meteohub,2013-03-15 13:01:00,
2013-03-15 06:06:00,50.2,46.8,30.48,WSW,253,1.0,11.0,88,0.00,,,0.00,meteohub,2013-03-15 13:06:00,
2013-03-15 06:12:00,50.0,46.2,30.48,SW,230,3.0,11.0,87,0.00,,,0.00,meteohub,2013-03-15 13:12:00,
2013-03-15 06:17:00,49.8,46.0,30.48,WNW,291,0.0,11.0,87,0.00,,,0.00,meteohub,2013-03-15 13:17:00,
2013-03-15 06:22:00,49.8,46.0,30.48,SW,234,2.0,9.0,87,0.00,,,0.00,meteohub,2013-03-15 13:22:00,
2013-03-15 06:27:00,49.6,45.9,30.49,WSW,250,2.0,6.0,87,0.00,,,0.00,meteohub,2013-03-15 13:27:00,
2013-03-15 06:32:00,49.5,45.5,30.49,WNW,286,1.0,6.0,86,0.00,,,0.00,meteohub,2013-03-15 13:32:00,
2013-03-15 06:38:00,49.3,45.0,30.48,SW,233,2.0,6.0,85,0.00,,,0.00,meteohub,2013-03-15 13:38:00,
2013-03-15 06:43:00,49.5,45.7,30.48,WNW,288,3.0,7.0,87,0.00,,,0.00,meteohub,2013-03-15 13:43:00,
2013-03-15 06:48:00,49.5,45.7,30.48,West,265,3.0,7.0,87,0.00,,,0.00,meteohub,2013-03-15 13:48:00,
2013-03-15 06:53:00,49.5,45.7,30.48,West,267,6.0,9.0,87,0.00,,,0.00,meteohub,2013-03-15 13:53:00,
2013-03-15 06:58:00,49.5,45.7,30.48,WSW,237,2.0,9.0,87,0.00,,,0.00,meteohub,2013-03-15 13:58:00,
2013-03-15 07:04:00,49.5,45.7,30.48,SW,233,4.0,9.0,87,0.00,,,0.00,meteohub,2013-03-15 14:04:00,
2013-03-15 07:09:00,49.5,45.7,30.48,West,279,1.0,7.0,87,0.00,,,0.00,meteohub,2013-03-15 14:09:00,
2013-03-15 07:14:00,49.3,45.5,30.48,WNW,297,2.0,7.0,87,0.00,,,0.00,meteohub,2013-03-15 14:14:00,
2013-03-15 07:19:00,49.3,45.9,30.48,East,82,0.0,5.0,88,0.00,,,0.00,meteohub,2013-03-15 14:19:00,
2013-03-15 07:24:00,49.3,45.5,30.48,West,277,1.0,4.0,87,0.00,,,0.00,meteohub,2013-03-15 14:24:00,
2013-03-15 07:29:00,48.9,45.5,30.49,East,86,2.0,7.0,88,0.00,,,0.00,meteohub,2013-03-15 14:29:00,
2013-03-15 07:34:00,48.4,45.3,30.49,NE,47,2.0,7.0,89,0.00,,,0.00,meteohub,2013-03-15 14:34:00,
2013-03-15 07:39:00,47.8,44.4,30.49,East,87,1.0,7.0,88,0.00,,,0.00,meteohub,2013-03-15 14:39:00,
2013-03-15 07:44:00,47.7,44.1,30.49,ENE,75,3.0,6.0,87,0.00,,,0.00,meteohub,2013-03-15 14:44:00,
2013-03-15 07:49:00,48.4,44.1,30.49,WSW,237,5.0,5.0,85,0.00,,,0.00,meteohub,2013-03-15 14:49:00,
2013-03-15 07:54:00,49.3,45.9,30.49,WSW,253,1.0,5.0,88,0.00,,,0.00,meteohub,2013-03-15 14:54:00,
2013-03-15 08:00:00,49.8,46.4,30.49,WSW,250,0.0,6.0,88,0.00,,,0.00,meteohub,2013-03-15 15:00:00,
2013-03-15 08:05:00,50.2,46.8,30.49,NW,309,3.0,7.0,88,0.00,,,0.00,meteohub,2013-03-15 15:05:00,
2013-03-15 08:10:00,49.8,46.4,30.49,North,355,0.0,7.0,88,0.00,,,0.00,meteohub,2013-03-15 15:10:00,
2013-03-15 08:15:00,49.5,46.0,30.49,SE,138,2.0,4.0,88,0.00,,,0.00,meteohub,2013-03-15 15:15:00,
2013-03-15 08:20:00,49.3,45.9,30.49,ENE,67,4.0,5.0,88,0.00,,,0.00,meteohub,2013-03-15 15:20:00,
2013-03-15 08:25:00,49.3,45.9,30.49,East,92,2.0,7.0,88,0.00,,,0.00,meteohub,2013-03-15 15:25:00,
2013-03-15 08:31:00,49.5,46.0,30.50,ESE,119,2.0,7.0,88,0.00,,,0.00,meteohub,2013-03-15 15:31:00,
2013-03-15 08:37:00,49.6,46.2,30.50,SW,217,0.0,7.0,88,0.00,,,0.00,meteohub,2013-03-15 15:37:00,
2013-03-15 08:42:00,50.2,46.8,30.50,WNW,283,2.0,5.0,88,0.00,,,0.00,meteohub,2013-03-15 15:42:00,
2013-03-15 08:47:00,50.2,46.8,30.50,NNE,22,1.0,6.0,88,0.00,,,0.00,meteohub,2013-03-15 15:47:00,
2013-03-15 08:52:00,49.8,46.4,30.50,East,91,3.0,6.0,88,0.00,,,0.00,meteohub,2013-03-15 15:52:00,
2013-03-15 08:57:00,49.8,46.4,30.50,NE,50,2.0,6.0,88,0.00,,,0.00,meteohub,2013-03-15 15:57:00,
2013-03-15 09:02:00,50.0,46.6,30.50,NW,316,0.0,4.0,88,0.00,,,0.00,meteohub,2013-03-15 16:02:00,
2013-03-15 09:07:00,50.2,46.8,30.51,ENE,72,0.0,3.0,88,0.00,,,0.00,meteohub,2013-03-15 16:07:00,
2013-03-15 09:13:00,50.4,46.9,30.51,NNE,25,0.0,3.0,88,0.00,,,0.00,meteohub,2013-03-15 16:13:00,
2013-03-15 09:18:00,50.5,47.1,30.51,NNE,25,0.0,2.0,88,0.00,,,0.00,meteohub,2013-03-15 16:18:00,
2013-03-15 09:23:00,50.7,47.3,30.51,SW,217,2.0,2.0,88,0.00,,,0.00,meteohub,2013-03-15 16:23:00,
2013-03-15 09:28:00,51.3,47.8,30.51,SSW,194,3.0,3.0,88,0.00,,,0.00,meteohub,2013-03-15 16:28:00,
2013-03-15 09:33:00,51.8,48.4,30.51,SSW,210,1.0,7.0,88,0.00,,,0.00,meteohub,2013-03-15 16:33:00,
2013-03-15 09:38:00,52.2,48.4,30.51,WNW,283,2.0,8.0,87,0.00,,,0.00,meteohub,2013-03-15 16:38:00,
2013-03-15 09:43:00,52.2,48.4,30.51,WSW,257,1.0,8.0,87,0.00,,,0.00,meteohub,2013-03-15 16:43:00,
2013-03-15 09:48:00,52.2,48.4,30.51,SW,233,6.0,6.0,87,0.00,,,0.00,meteohub,2013-03-15 16:48:00,
2013-03-15 09:53:00,52.2,48.4,30.50,WSW,244,5.0,10.0,87,0.00,,,0.00,meteohub,2013-03-15 16:53:00,
2013-03-15 09:58:00,52.2,48.4,30.50,SW,234,7.0,10.0,87,0.00,,,0.00,meteohub,2013-03-15 16:58:00,
2013-03-15 10:04:00,52.5,48.4,30.50,WSW,250,4.0,10.0,86,0.00,,,0.00,meteohub,2013-03-15 17:04:00,
2013-03-15 10:09:00,52.7,48.6,30.50,SSW,207,7.0,10.0,86,0.00,,,0.00,meteohub,2013-03-15 17:09:00,
2013-03-15 10:14:00,53.1,48.9,30.50,WSW,253,3.0,10.0,86,0.00,,,0.00,meteohub,2013-03-15 17:14:00,
2013-03-15 10:19:00,53.2,48.9,30.51,SW,230,4.0,12.0,85,0.00,,,0.00,meteohub,2013-03-15 17:19:00,
2013-03-15 10:24:00,53.2,48.6,30.51,West,259,7.0,12.0,84,0.00,,,0.00,meteohub,2013-03-15 17:24:00,
2013-03-15 10:29:00,53.2,48.9,30.51,SW,233,4.0,10.0,85,0.00,,,0.00,meteohub,2013-03-15 17:29:00,
2013-03-15 10:34:00,53.4,48.7,30.50,West,265,5.0,12.0,84,0.00,,,0.00,meteohub,2013-03-15 17:34:00,
2013-03-15 10:39:00,53.8,49.5,30.50,West,264,4.0,12.0,85,0.00,,,0.00,meteohub,2013-03-15 17:39:00,
2013-03-15 10:45:00,53.8,49.1,30.50,West,275,4.0,11.0,84,0.00,,,0.00,meteohub,2013-03-15 17:45:00,
2013-03-15 10:50:00,53.8,49.1,30.50,SW,232,8.0,11.0,84,0.00,,,0.00,meteohub,2013-03-15 17:50:00,
2013-03-15 10:55:00,53.8,49.1,30.50,West,267,7.0,11.0,84,0.00,,,0.00,meteohub,2013-03-15 17:55:00,
2013-03-15 11:00:00,53.8,49.1,30.50,West,272,8.0,12.0,84,0.00,,,0.00,meteohub,2013-03-15 18:00:00,
2013-03-15 11:06:00,53.8,49.1,30.50,West,261,5.0,12.0,84,0.00,,,0.00,meteohub,2013-03-15 18:06:00,
2013-03-15 11:11:00,54.0,49.3,30.50,WSW,256,4.0,12.0,84,0.00,,,0.00,meteohub,2013-03-15 18:11:00,
2013-03-15 11:16:00,54.0,48.9,30.50,WNW,287,4.0,12.0,83,0.00,,,0.00,meteohub,2013-03-15 18:16:00,
2013-03-15 11:21:00,54.1,49.1,30.50,WSW,253,4.0,13.0,83,0.00,,,0.00,meteohub,2013-03-15 18:21:00,
2013-03-15 11:26:00,54.5,49.5,30.50,WSW,239,8.0,13.0,83,0.00,,,0.00,meteohub,2013-03-15 18:26:00,
2013-03-15 11:31:00,54.7,49.6,30.50,SW,226,6.0,12.0,83,0.00,,,0.00,meteohub,2013-03-15 18:31:00,
2013-03-15 11:36:00,54.7,49.3,30.50,SW,227,5.0,13.0,82,0.00,,,0.00,meteohub,2013-03-15 18:36:00,
2013-03-15 11:41:00,54.9,49.5,30.50,WSW,244,5.0,13.0,82,0.00,,,0.00,meteohub,2013-03-15 18:41:00,
2013-03-15 11:47:00,55.0,49.3,30.50,WSW,237,6.0,13.0,81,0.00,,,0.00,meteohub,2013-03-15 18:47:00,
2013-03-15 11:52:00,55.0,49.3,30.50,SW,223,8.0,14.0,81,0.00,,,0.00,meteohub,2013-03-15 18:52:00,
2013-03-15 11:57:00,55.0,49.3,30.50,West,259,4.0,14.0,81,0.00,,,0.00,meteohub,2013-03-15 18:57:00,
2013-03-15 12:02:00,55.0,49.3,30.50,SW,233,9.0,14.0,81,0.00,,,0.00,meteohub,2013-03-15 19:02:00,
2013-03-15 12:07:00,55.2,49.5,30.50,SW,234,11.0,12.0,81,0.00,,,0.00,meteohub,2013-03-15 19:07:00,
2013-03-15 12:12:00,55.2,49.5,30.50,West,263,8.0,12.0,81,0.00,,,0.00,meteohub,2013-03-15 19:12:00,
2013-03-15 12:17:00,55.2,49.5,30.50,WSW,255,5.0,12.0,81,0.00,,,0.00,meteohub,2013-03-15 19:17:00,
2013-03-15 12:22:00,55.6,49.5,30.50,West,265,4.0,12.0,80,0.00,,,0.00,meteohub,2013-03-15 19:22:00,
2013-03-15 12:27:00,55.9,49.5,30.50,WSW,256,7.0,10.0,79,0.00,,,0.00,meteohub,2013-03-15 19:27:00,
2013-03-15 12:32:00,56.5,49.3,30.50,WSW,239,6.0,10.0,77,0.00,,,0.00,meteohub,2013-03-15 19:32:00,
2013-03-15 12:37:00,56.7,49.1,30.50,WNW,283,3.0,11.0,76,0.00,,,0.00,meteohub,2013-03-15 19:37:00,
2013-03-15 12:42:00,57.0,49.5,30.50,WNW,288,5.0,14.0,76,0.00,,,0.00,meteohub,2013-03-15 19:42:00,
2013-03-15 12:47:00,57.2,49.3,30.50,WSW,248,6.0,14.0,75,0.00,,,0.00,meteohub,2013-03-15 19:47:00,
2013-03-15 12:52:00,57.0,49.8,30.50,WSW,250,3.0,14.0,77,0.00,,,0.00,meteohub,2013-03-15 19:52:00,
2013-03-15 12:58:00,57.2,49.6,30.50,West,273,8.0,11.0,76,0.00,,,0.00,meteohub,2013-03-15 19:58:00,
2013-03-15 13:03:00,57.4,49.1,30.50,WSW,250,5.0,11.0,74,0.00,,,0.00,meteohub,2013-03-15 20:03:00,
2013-03-15 13:08:00,57.6,49.6,30.50,West,261,6.0,11.0,75,0.00,,,0.00,meteohub,2013-03-15 20:08:00,
2013-03-15 13:13:00,57.7,49.5,30.49,WSW,240,7.0,14.0,74,0.00,,,0.00,meteohub,2013-03-15 20:13:00,
2013-03-15 13:18:00,57.6,49.6,30.49,WNW,285,9.0,14.0,75,0.00,,,0.00,meteohub,2013-03-15 20:18:00,
2013-03-15 13:24:00,57.6,49.6,30.49,West,275,5.0,13.0,75,0.00,,,0.00,meteohub,2013-03-15 20:24:00,
2013-03-15 13:29:00,57.9,50.0,30.49,WNW,286,6.0,13.0,75,0.00,,,0.00,meteohub,2013-03-15 20:29:00,
2013-03-15 13:34:00,57.7,49.5,30.49,WSW,245,11.0,13.0,74,0.00,,,0.00,meteohub,2013-03-15 20:34:00,
2013-03-15 13:39:00,57.7,49.8,30.48,WSW,237,3.0,11.0,75,0.00,,,0.00,meteohub,2013-03-15 20:39:00,
2013-03-15 13:44:00,57.7,49.8,30.48,WSW,253,3.0,12.0,75,0.00,,,0.00,meteohub,2013-03-15 20:44:00,
2013-03-15 13:49:00,58.1,49.8,30.48,WSW,245,5.0,14.0,74,0.00,,,0.00,meteohub,2013-03-15 20:49:00,
2013-03-15 13:54:00,58.5,49.8,30.48,WNW,287,6.0,14.0,73,0.00,,,0.00,meteohub,2013-03-15 20:54:00,
2013-03-15 14:00:00,58.5,49.1,30.48,WSW,244,7.0,14.0,71,0.00,,,0.00,meteohub,2013-03-15 21:00:00,
2013-03-15 14:05:00,58.3,49.3,30.48,West,267,4.0,14.0,72,0.00,,,0.00,meteohub,2013-03-15 21:05:00,
2013-03-15 14:10:00,58.3,49.6,30.48,WSW,244,5.0,14.0,73,0.00,,,0.00,meteohub,2013-03-15 21:10:00,
2013-03-15 14:15:00,58.5,49.1,30.48,West,260,5.0,12.0,71,0.00,,,0.00,meteohub,2013-03-15 21:15:00,
2013-03-15 14:21:00,58.6,48.9,30.48,West,262,6.0,14.0,70,0.00,,,0.00,meteohub,2013-03-15 21:21:00,
2013-03-15 14:26:00,58.5,48.7,30.47,West,273,4.0,14.0,70,0.00,,,0.00,meteohub,2013-03-15 21:26:00,
2013-03-15 14:31:00,58.6,48.6,30.47,SW,233,9.0,14.0,69,0.00,,,0.00,meteohub,2013-03-15 21:31:00,
2013-03-15 14:36:00,58.8,48.2,30.47,WSW,250,6.0,12.0,68,0.00,,,0.00,meteohub,2013-03-15 21:36:00,
2013-03-15 14:41:00,59.5,49.3,30.46,WNW,302,4.0,12.0,69,0.00,,,0.00,meteohub,2013-03-15 21:41:00,
2013-03-15 14:46:00,59.5,48.9,30.46,WSW,244,4.0,13.0,68,0.00,,,0.00,meteohub,2013-03-15 21:46:00,
2013-03-15 14:51:00,59.7,48.4,30.46,SW,225,6.0,14.0,66,0.00,,,0.00,meteohub,2013-03-15 21:51:00,
2013-03-15 14:56:00,60.1,49.1,30.46,SE,138,5.0,14.0,67,0.00,,,0.00,meteohub,2013-03-15 21:56:00,
2013-03-15 15:02:00,60.3,48.9,30.45,WSW,246,2.0,12.0,66,0.00,,,0.00,meteohub,2013-03-15 22:02:00,
2013-03-15 15:07:00,60.3,48.4,30.45,West,273,6.0,12.0,65,0.00,,,0.00,meteohub,2013-03-15 22:07:00,
2013-03-15 15:12:00,60.4,49.1,30.45,WSW,240,11.0,11.0,66,0.00,,,0.00,meteohub,2013-03-15 22:12:00,
2013-03-15 15:17:00,60.1,48.2,30.45,West,260,7.0,13.0,65,0.00,,,0.00,meteohub,2013-03-15 22:17:00,
2013-03-15 15:22:00,60.1,47.8,30.45,WNW,288,6.0,13.0,64,0.00,,,0.00,meteohub,2013-03-15 22:22:00,
2013-03-15 15:27:00,59.7,48.4,30.45,WNW,283,5.0,13.0,66,0.00,,,0.00,meteohub,2013-03-15 22:27:00,
2013-03-15 15:32:00,59.7,48.0,30.45,West,263,5.0,13.0,65,0.00,,,0.00,meteohub,2013-03-15 22:32:00,
2013-03-15 15:37:00,59.5,47.8,30.45,SW,226,7.0,13.0,65,0.00,,,0.00,meteohub,2013-03-15 22:37:00,
2013-03-15 15:43:00,59.5,47.8,30.45,WSW,251,5.0,9.0,65,0.00,,,0.00,meteohub,2013-03-15 22:43:00,
2013-03-15 15:48:00,59.7,48.4,30.45,WSW,248,7.0,9.0,66,0.00,,,0.00,meteohub,2013-03-15 22:48:00,
2013-03-15 15:53:00,60.1,48.7,30.45,West,276,5.0,10.0,66,0.00,,,0.00,meteohub,2013-03-15 22:53:00,
2013-03-15 15:58:00,60.1,48.7,30.45,West,259,5.0,10.0,66,0.00,,,0.00,meteohub,2013-03-15 22:58:00,
2013-03-15 16:03:00,59.9,48.9,30.45,WSW,238,7.0,11.0,67,0.00,,,0.00,meteohub,2013-03-15 23:03:00,
2013-03-15 16:08:00,59.7,48.4,30.45,WSW,238,4.0,12.0,66,0.00,,,0.00,meteohub,2013-03-15 23:08:00,
2013-03-15 16:14:00,59.7,48.7,30.45,SW,230,4.0,12.0,67,0.00,,,0.00,meteohub,2013-03-15 23:14:00,
2013-03-15 16:19:00,59.5,48.2,30.45,WNW,300,1.0,12.0,66,0.00,,,0.00,meteohub,2013-03-15 23:19:00,
2013-03-15 16:24:00,59.7,48.0,30.45,WSW,246,11.0,11.0,65,0.00,,,0.00,meteohub,2013-03-15 23:24:00,
2013-03-15 16:29:00,59.5,47.8,30.44,West,277,4.0,9.0,65,0.00,,,0.00,meteohub,2013-03-15 23:29:00,
2013-03-15 16:34:00,59.5,47.3,30.44,WNW,294,3.0,11.0,64,0.00,,,0.00,meteohub,2013-03-15 23:34:00,
2013-03-15 16:40:00,59.5,47.3,30.44,WSW,257,4.0,11.0,64,0.00,,,0.00,meteohub,2013-03-15 23:40:00,
2013-03-15 16:45:00,59.5,47.8,30.44,SW,230,4.0,10.0,65,0.00,,,0.00,meteohub,2013-03-15 23:45:00,
2013-03-15 16:50:00,59.5,47.8,30.44,SW,230,2.0,10.0,65,0.00,,,0.00,meteohub,2013-03-15 23:50:00,
2013-03-15 17:00:00,59.5,47.8,30.44,WSW,239,4.0,10.0,65,0.00,,,0.00,meteohub,2013-03-16 00:00:00,
2013-03-15 17:06:00,59.9,47.7,30.44,WNW,298,2.0,11.0,64,0.00,,,0.00,meteohub,2013-03-16 00:06:00,
2013-03-15 17:11:00,60.1,48.2,30.43,West,261,4.0,11.0,65,0.00,,,0.00,meteohub,2013-03-16 00:11:00,
2013-03-15 17:17:00,60.3,48.0,30.44,West,260,4.0,11.0,64,0.00,,,0.00,meteohub,2013-03-16 00:17:00,
2013-03-15 17:22:00,60.3,48.0,30.43,WSW,257,3.0,10.0,64,0.00,,,0.00,meteohub,2013-03-16 00:22:00,
2013-03-15 17:27:00,60.3,48.0,30.43,WNW,301,3.0,10.0,64,0.00,,,0.00,meteohub,2013-03-16 00:27:00,
2013-03-15 17:32:00,60.3,48.0,30.43,WNW,288,6.0,9.0,64,0.00,,,0.00,meteohub,2013-03-16 00:32:00,
2013-03-15 17:38:00,60.3,48.0,30.44,West,273,3.0,9.0,64,0.00,,,0.00,meteohub,2013-03-16 00:38:00,
2013-03-15 17:43:00,60.3,47.7,30.43,WSW,250,2.0,10.0,63,0.00,,,0.00,meteohub,2013-03-16 00:43:00,
2013-03-15 17:48:00,60.3,47.7,30.44,WSW,240,6.0,10.0,63,0.00,,,0.00,meteohub,2013-03-16 00:48:00,
2013-03-15 17:53:00,60.3,47.7,30.44,WSW,244,6.0,10.0,63,0.00,,,0.00,meteohub,2013-03-16 00:53:00,
2013-03-15 17:58:00,60.3,47.7,30.43,West,269,3.0,9.0,63,0.00,,,0.00,meteohub,2013-03-16 00:58:00,
2013-03-15 18:03:00,60.6,47.5,30.43,West,279,3.0,9.0,62,0.00,,,0.00,meteohub,2013-03-16 01:03:00,
2013-03-15 18:08:00,60.6,47.1,30.43,West,280,5.0,8.0,61,0.00,,,0.00,meteohub,2013-03-16 01:08:00,
2013-03-15 18:14:00,60.4,46.9,30.43,SSW,211,4.0,8.0,61,0.00,,,0.00,meteohub,2013-03-16 01:14:00,
2013-03-15 18:19:00,60.3,47.1,30.43,West,273,3.0,8.0,62,0.00,,,0.00,meteohub,2013-03-16 01:19:00,
2013-03-15 18:24:00,59.9,46.8,30.43,SW,225,4.0,8.0,62,0.00,,,0.00,meteohub,2013-03-16 01:24:00,
2013-03-15 18:29:00,59.5,46.9,30.43,West,272,3.0,8.0,63,0.00,,,0.00,meteohub,2013-03-16 01:29:00,
2013-03-15 18:35:00,59.4,46.8,30.43,SW,236,5.0,9.0,63,0.00,,,0.00,meteohub,2013-03-16 01:35:00,
2013-03-15 18:40:00,59.2,46.6,30.43,WSW,242,4.0,9.0,63,0.00,,,0.00,meteohub,2013-03-16 01:40:00,
2013-03-15 18:45:00,59.2,46.9,30.43,WSW,256,4.0,9.0,64,0.00,,,0.00,meteohub,2013-03-16 01:45:00,
2013-03-15 18:50:00,58.8,46.6,30.43,West,265,1.0,9.0,64,0.00,,,0.00,meteohub,2013-03-16 01:50:00,
2013-03-15 18:55:00,58.6,46.9,30.43,WSW,256,2.0,6.0,65,0.00,,,0.00,meteohub,2013-03-16 01:55:00,
2013-03-15 19:00:00,58.5,46.8,30.43,SW,224,4.0,6.0,65,0.00,,,0.00,meteohub,2013-03-16 02:00:00,
2013-03-15 19:05:00,58.3,46.6,30.43,SW,221,6.0,7.0,65,0.00,,,0.00,meteohub,2013-03-16 02:05:00,
2013-03-15 19:11:00,58.3,46.6,30.43,WSW,250,4.0,10.0,65,0.00,,,0.00,meteohub,2013-03-16 02:11:00,
2013-03-15 19:16:00,58.1,46.8,30.43,SW,224,4.0,10.0,66,0.00,,,0.00,meteohub,2013-03-16 02:16:00,
2013-03-15 19:21:00,57.9,46.6,30.43,WSW,246,3.0,10.0,66,0.00,,,0.00,meteohub,2013-03-16 02:21:00,
2013-03-15 19:26:00,57.7,46.9,30.43,SW,226,2.0,8.0,67,0.00,,,0.00,meteohub,2013-03-16 02:26:00,
2013-03-15 19:31:00,57.6,46.8,30.43,SW,223,2.0,7.0,67,0.00,,,0.00,meteohub,2013-03-16 02:31:00,
2013-03-15 19:36:00,57.4,46.9,30.43,SW,232,1.0,6.0,68,0.00,,,0.00,meteohub,2013-03-16 02:36:00,
2013-03-15 19:41:00,57.0,46.6,30.43,SW,234,2.0,5.0,68,0.00,,,0.00,meteohub,2013-03-16 02:41:00,
2013-03-15 19:46:00,57.0,46.6,30.43,West,265,2.0,4.0,68,0.00,,,0.00,meteohub,2013-03-16 02:46:00,
2013-03-15 19:52:00,57.0,46.6,30.43,WSW,255,1.0,4.0,68,0.00,,,0.00,meteohub,2013-03-16 02:52:00,
2013-03-15 19:57:00,57.0,46.6,30.43,WSW,250,5.0,5.0,68,0.00,,,0.00,meteohub,2013-03-16 02:57:00,
2013-03-15 20:02:00,57.0,46.9,30.43,WSW,257,1.0,5.0,69,0.00,,,0.00,meteohub,2013-03-16 03:02:00,
2013-03-15 20:07:00,56.8,46.8,30.43,West,281,2.0,5.0,69,0.00,,,0.00,meteohub,2013-03-16 03:07:00,
2013-03-15 20:12:00,56.5,46.8,30.43,WSW,251,1.0,5.0,70,0.00,,,0.00,meteohub,2013-03-16 03:12:00,
2013-03-15 20:18:00,56.5,46.8,30.43,WSW,253,2.0,4.0,70,0.00,,,0.00,meteohub,2013-03-16 03:18:00,
2013-03-15 20:23:00,56.3,46.6,30.43,West,262,2.0,4.0,70,0.00,,,0.00,meteohub,2013-03-16 03:23:00,
2013-03-15 20:28:00,56.5,46.4,30.43,West,272,4.0,4.0,69,0.00,,,0.00,meteohub,2013-03-16 03:28:00,
2013-03-15 20:34:00,56.7,46.2,30.43,West,261,4.0,6.0,68,0.00,,,0.00,meteohub,2013-03-16 03:34:00,
2013-03-15 20:39:00,56.7,46.6,30.43,WSW,237,1.0,7.0,69,0.00,,,0.00,meteohub,2013-03-16 03:39:00,
2013-03-15 20:44:00,56.7,46.6,30.43,West,276,2.0,7.0,69,0.00,,,0.00,meteohub,2013-03-16 03:44:00,
2013-03-15 20:49:00,56.5,46.8,30.42,NW,311,1.0,7.0,70,0.00,,,0.00,meteohub,2013-03-16 03:49:00,
2013-03-15 20:54:00,55.8,46.9,30.43,WNW,283,0.0,4.0,72,0.00,,,0.00,meteohub,2013-03-16 03:54:00,
2013-03-15 20:59:00,55.2,47.1,30.43,NW,306,1.0,3.0,74,0.00,,,0.00,meteohub,2013-03-16 03:59:00,
2013-03-15 21:00:00,55.2,47.1,30.43,NW,304,0.0,4.0,74,0.00,,,0.00,meteohub,2013-03-16 04:00:00,
2013-03-15 21:01:00,55.0,46.9,30.43,WNW,300,0.0,4.0,74,0.00,,,0.00,meteohub,2013-03-16 04:01:00,
2013-03-15 21:04:00,54.9,46.8,30.42,WNW,285,0.0,4.0,74,0.00,,,0.00,meteohub,2013-03-16 04:04:00,
2013-03-15 21:07:00,54.5,47.1,30.42,WSW,248,1.0,4.0,76,0.00,,,0.00,meteohub,2013-03-16 04:07:00,
2013-03-15 21:12:00,54.1,47.1,30.42,SW,219,3.0,4.0,77,0.00,,,0.00,meteohub,2013-03-16 04:12:00,
2013-03-15 21:17:00,54.0,47.3,30.42,WSW,240,2.0,3.0,78,0.00,,,0.00,meteohub,2013-03-16 04:17:00,
2013-03-15 21:23:00,53.8,47.1,30.42,SW,233,1.0,5.0,78,0.00,,,0.00,meteohub,2013-03-16 04:23:00,
2013-03-15 21:28:00,53.2,46.9,30.42,SSW,199,1.0,5.0,79,0.00,,,0.00,meteohub,2013-03-16 04:28:00,
2013-03-15 21:33:00,53.1,46.8,30.43,SSE,164,1.0,4.0,79,0.00,,,0.00,meteohub,2013-03-16 04:33:00,
2013-03-15 21:38:00,52.9,46.6,30.43,SW,236,1.0,2.0,79,0.00,,,0.00,meteohub,2013-03-16 04:38:00,
2013-03-15 21:43:00,52.7,46.8,30.43,SW,236,3.0,3.0,80,0.00,,,0.00,meteohub,2013-03-16 04:43:00,
2013-03-15 21:48:00,52.9,46.9,30.43,SW,230,4.0,4.0,80,0.00,,,0.00,meteohub,2013-03-16 04:48:00,
2013-03-15 21:53:00,53.1,47.1,30.43,WSW,242,2.0,4.0,80,0.00,,,0.00,meteohub,2013-03-16 04:53:00,
2013-03-15 21:59:00,53.2,47.3,30.42,SSW,210,2.0,6.0,80,0.00,,,0.00,meteohub,2013-03-16 04:59:00,
2013-03-15 22:04:00,53.2,47.3,30.42,SW,222,4.0,6.0,80,0.00,,,0.00,meteohub,2013-03-16 05:04:00,
2013-03-15 22:09:00,52.9,46.6,30.42,SSW,196,1.0,7.0,79,0.00,,,0.00,meteohub,2013-03-16 05:09:00,
2013-03-15 22:14:00,52.5,46.6,30.42,SSW,207,0.0,7.0,80,0.00,,,0.00,meteohub,2013-03-16 05:14:00,
2013-03-15 22:19:00,52.3,46.4,30.42,SSW,211,1.0,7.0,80,0.00,,,0.00,meteohub,2013-03-16 05:19:00,
2013-03-15 22:24:00,52.2,46.2,30.42,SSE,157,1.0,3.0,80,0.00,,,0.00,meteohub,2013-03-16 05:24:00,
2013-03-15 22:29:00,52.3,46.8,30.42,SW,219,0.0,3.0,81,0.00,,,0.00,meteohub,2013-03-16 05:29:00,
2013-03-15 22:34:00,52.3,46.8,30.43,WSW,244,0.0,3.0,81,0.00,,,0.00,meteohub,2013-03-16 05:34:00,
2013-03-15 22:40:00,52.3,46.8,30.43,WSW,248,4.0,5.0,81,0.00,,,0.00,meteohub,2013-03-16 05:40:00,
2013-03-15 22:45:00,52.3,46.9,30.43,WSW,254,3.0,7.0,82,0.00,,,0.00,meteohub,2013-03-16 05:45:00,
2013-03-15 22:50:00,52.3,46.9,30.42,West,259,4.0,8.0,82,0.00,,,0.00,meteohub,2013-03-16 05:50:00,
2013-03-15 22:55:00,52.2,46.8,30.42,WSW,242,9.0,10.0,82,0.00,,,0.00,meteohub,2013-03-16 05:55:00,
2013-03-15 23:00:00,52.2,46.8,30.42,WSW,256,4.0,10.0,82,0.00,,,0.00,meteohub,2013-03-16 06:00:00,
2013-03-15 23:06:00,52.0,46.6,30.42,WNW,294,1.0,11.0,82,0.00,,,0.00,meteohub,2013-03-16 06:06:00,
2013-03-15 23:11:00,51.8,46.8,30.42,WNW,295,3.0,11.0,83,0.00,,,0.00,meteohub,2013-03-16 06:11:00,
2013-03-15 23:16:00,51.6,46.6,30.42,West,277,0.0,9.0,83,0.00,,,0.00,meteohub,2013-03-16 06:16:00,
2013-03-15 23:21:00,51.6,46.6,30.42,SW,234,5.0,7.0,83,0.00,,,0.00,meteohub,2013-03-16 06:21:00,
2013-03-15 23:26:00,51.6,46.6,30.42,WNW,286,2.0,9.0,83,0.00,,,0.00,meteohub,2013-03-16 06:26:00,
2013-03-15 23:31:00,51.4,46.8,30.42,WNW,298,1.0,9.0,84,0.00,,,0.00,meteohub,2013-03-16 06:31:00,
2013-03-15 23:36:00,51.3,46.6,30.42,WSW,245,0.0,9.0,84,0.00,,,0.00,meteohub,2013-03-16 06:36:00,
2013-03-15 23:41:00,51.1,45.5,30.41,SSE,159,0.0,9.0,81,0.00,,,0.00,meteohub,2013-03-16 06:41:00,
2013-03-15 23:47:00,50.4,44.8,30.42,SSE,165,2.0,5.0,81,0.00,,,0.00,meteohub,2013-03-16 06:47:00,
2013-03-15 23:52:00,49.8,44.8,30.41,SSE,153,0.0,4.0,83,0.00,,,0.00,meteohub,2013-03-16 06:52:00,
2013-03-15 23:57:00,49.5,44.8,30.41,SSE,157,0.0,3.0,84,0.00,,,0.00,meteohub,2013-03-16 06:57:00,